Time,TemperatureF,DewpointF,PressureIn,WindDirection,WindDirectionDegrees,WindSpeedMPH,WindSpeedGustMPH,Humidity,HourlyPrecipIn,Conditions,Clouds,dailyrainin,SoftwareType,DateUTC
2013-03-08 00:01:00,61.2,52.9,30.16,SE,136,4.0,10.0,74,0.00,,OVC022,0.00,VWS V14.01,2013-03-08 06:01:00,
2013-03-08 00:07:00,61.0,52.7,30.16,SE,136,4.0,7.0,74,0.00,,OVC022,0.00,VWS V14.01,2013-03-08 06:07:00,
2013-03-08 00:12:00,61.0,52.7,30.16,SE,125,1.0,8.0,74,0.00,,OVC022,0.00,VWS V14.01,2013-03-08 06:12:00,
2013-03-08 00:16:00,61.0,53.0,30.15,ESE,119,2.0,10.0,75,0.00,,OVC022,0.00,VWS V14.01,2013-03-08 06:16:00,
2013-03-08 00:21:00,60.9,52.9,30.15,SE,124,6.0,10.0,75,0.00,,OVC022,0.00,VWS V14.01,2013-03-08 06:21:00,
2013-03-08 00:26:00,60.9,52.9,30.15,SE,141,5.0,12.0,75,0.00,,OVC022,0.00,VWS V14.01,2013-03-08 06:26:00,
2013-03-08 00:31:00,60.9,52.9,30.14,SE,138,3.0,12.0,75,0.00,,OVC022,0.00,VWS V14.01,2013-03-08 06:31:00,
2013-03-08 00:36:00,60.7,53.1,30.14,SE,134,4.0,10.0,76,0.00,,OVC022,0.00,VWS V14.01,2013-03-08 06:36:00,
2013-03-08 00:41:00,60.7,53.1,30.14,East,92,5.0,11.0,76,0.00,,OVC022,0.00,VWS V14.01,2013-03-08 06:41:00,
2013-03-08 00:46:00,60.7,53.1,30.14,SSE,163,6.0,11.0,76,0.00,,OVC022,0.00,VWS V14.01,2013-03-08 06:46:00,
2013-03-08 00:51:00,60.7,53.5,30.14,ESE,109,7.0,11.0,77,0.00,,OVC022,0.00,VWS V14.01,2013-03-08 06:51:00,
2013-03-08 00:56:00,60.7,53.5,30.14,SSE,155,3.0,14.0,77,0.00,,OVC020,0.00,VWS V14.01,2013-03-08 06:56:00,
2013-03-08 01:01:00,60.7,53.5,30.14,SSE,164,5.0,14.0,77,0.00,,OVC020,0.00,VWS V14.01,2013-03-08 07:01:00,
2013-03-08 01:06:00,60.9,53.7,30.14,ESE,115,2.0,10.0,77,0.00,,OVC020,0.00,VWS V14.01,2013-03-08 07:06:00,
2013-03-08 01:11:00,60.9,53.7,30.14,SE,146,2.0,12.0,77,0.00,,OVC020,0.00,VWS V14.01,2013-03-08 07:11:00,
2013-03-08 01:16:00,60.9,53.7,30.13,SSE,164,0.0,6.0,77,0.00,,OVC020,0.00,VWS V14.01,2013-03-08 07:16:00,
2013-03-08 01:21:00,60.9,53.7,30.13,ESE,118,3.0,12.0,77,0.00,,OVC020,0.00,VWS V14.01,2013-03-08 07:21:00,
2013-03-08 01:26:00,60.9,53.7,30.13,South,171,2.0,12.0,77,0.00,,OVC020,0.00,VWS V14.01,2013-03-08 07:26:00,
2013-03-08 01:31:00,60.9,53.7,30.13,ESE,117,4.0,12.0,77,0.00,,OVC020,0.00,VWS V14.01,2013-03-08 07:31:00,
2013-03-08 01:36:00,60.7,53.5,30.13,SE,124,5.0,11.0,77,0.00,,OVC020,0.00,VWS V14.01,2013-03-08 07:36:00,
2013-03-08 01:41:00,60.7,53.5,30.13,SE,133,1.0,13.0,77,0.00,,OVC020,0.00,VWS V14.01,2013-03-08 07:41:00,
2013-03-08 01:46:00,60.5,53.6,30.14,SE,138,4.0,9.0,78,0.00,,OVC020,0.00,VWS V14.01,2013-03-08 07:46:00,
2013-03-08 01:51:00,60.5,53.6,30.14,SE,130,0.0,9.0,78,0.00,,OVC020,0.00,VWS V14.01,2013-03-08 07:51:00,
2013-03-08 01:56:00,60.5,53.6,30.14,SE,132,1.0,9.0,78,0.00,,OVC023,0.00,VWS V14.01,2013-03-08 07:56:00,
2013-03-08 02:01:00,60.4,53.5,30.12,ESE,119,2.0,12.0,78,0.00,,OVC023,0.00,VWS V14.01,2013-03-08 08:01:00,
2013-03-08 02:06:00,60.4,53.5,30.12,ESE,121,0.0,7.0,78,0.00,,OVC023,0.00,VWS V14.01,2013-03-08 08:06:00,
2013-03-08 02:11:00,60.2,53.3,30.12,ESE,121,4.0,8.0,78,0.00,,OVC023,0.00,VWS V14.01,2013-03-08 08:11:00,
2013-03-08 02:16:00,60.2,53.7,30.12,ESE,119,2.0,7.0,79,0.00,,OVC023,0.00,VWS V14.01,2013-03-08 08:16:00,
2013-03-08 02:21:00,60.2,53.7,30.12,SE,136,0.0,7.0,79,0.00,,OVC023,0.00,VWS V14.01,2013-03-08 08:21:00,
2013-03-08 02:26:00,60.2,53.7,30.12,ESE,117,0.0,5.0,79,0.00,,OVC023,0.00,VWS V14.01,2013-03-08 08:26:00,
2013-03-08 02:31:00,60.2,53.7,30.12,SE,129,0.0,7.0,79,0.00,,OVC023,0.00,VWS V14.01,2013-03-08 08:31:00,
2013-03-08 02:36:00,60.2,53.7,30.12,SE,128,0.0,7.0,79,0.00,,OVC023,0.00,VWS V14.01,2013-03-08 08:36:00,
2013-03-08 02:41:00,60.2,53.7,30.12,ESE,111,1.0,12.0,79,0.00,,OVC023,0.00,VWS V14.01,2013-03-08 08:41:00,
2013-03-08 02:46:00,60.2,53.7,30.11,ESE,106,2.0,5.0,79,0.00,,OVC023,0.00,VWS V14.01,2013-03-08 08:46:00,
2013-03-08 02:51:00,60.2,53.7,30.11,SE,126,0.0,6.0,79,0.00,,OVC023,0.00,VWS V14.01,2013-03-08 08:51:00,
2013-03-08 02:56:00,60.4,54.2,30.11,SE,138,6.0,10.0,80,0.00,,OVC016,0.00,VWS V14.01,2013-03-08 08:56:00,
2013-03-08 03:01:00,60.4,54.2,30.10,SE,135,0.0,10.0,80,0.00,,OVC016,0.00,VWS V14.01,2013-03-08 09:01:00,
2013-03-08 03:06:00,60.5,54.3,30.10,ESE,123,0.0,4.0,80,0.00,,OVC016,0.00,VWS V14.01,2013-03-08 09:06:00,
2013-03-08 03:11:00,60.5,54.3,30.10,ESE,109,4.0,7.0,80,0.00,,OVC016,0.00,VWS V14.01,2013-03-08 09:11:00,
2013-03-08 03:16:00,60.5,54.3,30.11,SE,130,4.0,8.0,80,0.00,,OVC016,0.00,VWS V14.01,2013-03-08 09:16:00,
2013-03-08 03:21:00,60.7,54.5,30.11,ESE,118,0.0,8.0,80,0.00,,OVC016,0.00,VWS V14.01,2013-03-08 09:21:00,
2013-03-08 03:26:00,60.7,54.5,30.11,SE,124,0.0,5.0,80,0.00,,OVC016,0.00,VWS V14.01,2013-03-08 09:26:00,
2013-03-08 03:31:00,60.7,54.5,30.11,ESE,123,0.0,5.0,80,0.00,,OVC016,0.00,VWS V14.01,2013-03-08 09:31:00,
2013-03-08 03:36:00,60.7,54.5,30.11,ESE,111,2.0,6.0,80,0.00,,OVC016,0.00,VWS V14.01,2013-03-08 09:36:00,
2013-03-08 03:41:00,60.7,54.5,30.11,ESE,113,0.0,6.0,80,0.00,,OVC016,0.00,VWS V14.01,2013-03-08 09:41:00,
2013-03-08 03:46:00,60.7,54.5,30.10,ESE,119,0.0,6.0,80,0.00,,OVC016,0.00,VWS V14.01,2013-03-08 09:46:00,
2013-03-08 03:51:00,60.7,54.5,30.10,ESE,121,2.0,6.0,80,0.00,,OVC016,0.00,VWS V14.01,2013-03-08 09:51:00,
2013-03-08 03:56:00,60.7,54.5,30.10,SE,130,0.0,4.0,80,0.00,,OVC016,0.00,VWS V14.01,2013-03-08 09:56:00,
2013-03-08 04:01:00,60.7,54.5,30.09,East,98,0.0,5.0,80,0.00,,OVC016,0.00,VWS V14.01,2013-03-08 10:01:00,
2013-03-08 04:06:00,60.7,54.5,30.09,ESE,123,0.0,5.0,80,0.00,,OVC016,0.00,VWS V14.01,2013-03-08 10:06:00,
2013-03-08 04:11:00,60.7,54.5,30.09,ESE,122,0.0,5.0,80,0.00,,OVC016,0.00,VWS V14.01,2013-03-08 10:11:00,
2013-03-08 04:16:00,60.7,54.5,30.09,SE,126,0.0,6.0,80,0.00,,OVC016,0.00,VWS V14.01,2013-03-08 10:16:00,
2013-03-08 04:21:00,60.7,54.5,30.09,SE,126,0.0,6.0,80,0.00,,OVC016,0.00,VWS V14.01,2013-03-08 10:21:00,
2013-03-08 04:26:00,60.9,54.7,30.09,SE,128,0.0,0.0,80,0.00,,OVC016,0.00,VWS V14.01,2013-03-08 10:26:00,
2013-03-08 04:31:00,60.9,55.0,30.09,SSE,154,0.0,6.0,81,0.00,,OVC014,0.00,VWS V14.01,2013-03-08 10:31:00,
2013-03-08 04:36:00,61.0,55.1,30.09,SE,131,0.0,0.0,81,0.00,,OVC014,0.00,VWS V14.01,2013-03-08 10:36:00,
2013-03-08 04:41:00,61.2,55.3,30.09,SE,127,2.0,4.0,81,0.00,,OVC014,0.00,VWS V14.01,2013-03-08 10:41:00,
2013-03-08 04:46:00,61.3,55.4,30.09,ESE,104,0.0,5.0,81,0.00,,OVC014,0.00,VWS V14.01,2013-03-08 10:46:00,
2013-03-08 04:51:00,61.3,55.4,30.09,ESE,122,2.0,9.0,81,0.00,,OVC014,0.00,VWS V14.01,2013-03-08 10:51:00,
2013-03-08 04:56:00,61.3,55.4,30.09,SE,146,0.0,6.0,81,0.00,,OVC014,0.00,VWS V14.01,2013-03-08 10:56:00,
2013-03-08 05:01:00,61.3,55.4,30.09,ESE,119,0.0,6.0,81,0.00,,OVC014,0.00,VWS V14.01,2013-03-08 11:01:00,
2013-03-08 05:06:00,61.3,55.4,30.09,SSE,148,0.0,6.0,81,0.00,,OVC014,0.00,VWS V14.01,2013-03-08 11:06:00,
2013-03-08 05:11:00,61.3,55.4,30.09,SE,130,0.0,7.0,81,0.00,,OVC014,0.00,VWS V14.01,2013-03-08 11:11:00,
2013-03-08 05:16:00,61.3,55.4,30.09,ESE,119,0.0,5.0,81,0.00,,OVC014,0.00,VWS V14.01,2013-03-08 11:16:00,
2013-03-08 05:21:00,61.3,55.4,30.10,SE,128,3.0,7.0,81,0.00,,OVC014,0.00,VWS V14.01,2013-03-08 11:21:00,
2013-03-08 05:26:00,61.3,55.8,30.10,SSE,160,6.0,9.0,82,0.00,,OVC014,0.00,VWS V14.01,2013-03-08 11:26:00,
2013-03-08 05:31:00,61.3,55.8,30.10,ESE,109,0.0,9.0,82,0.00,,OVC014,0.00,VWS V14.01,2013-03-08 11:31:00,
2013-03-08 05:36:00,61.3,55.8,30.09,ESE,123,0.0,7.0,82,0.00,,OVC014,0.00,VWS V14.01,2013-03-08 11:36:00,
2013-03-08 05:41:00,61.3,55.8,30.09,ESE,111,0.0,7.0,82,0.00,,OVC014,0.00,VWS V14.01,2013-03-08 11:41:00,
2013-03-08 05:46:00,61.3,55.8,30.09,East,88,4.0,7.0,82,0.00,,OVC014,0.00,VWS V14.01,2013-03-08 11:46:00,
2013-03-08 05:51:00,61.3,56.1,30.10,ESE,109,0.0,8.0,83,0.00,,OVC014,0.00,VWS V14.01,2013-03-08 11:51:00,
2013-03-08 05:56:00,61.3,56.1,30.10,ESE,116,1.0,6.0,83,0.00,,OVC012,0.00,VWS V14.01,2013-03-08 11:56:00,
2013-03-08 06:01:00,61.5,56.3,30.10,SE,143,5.0,6.0,83,0.00,,OVC012,0.00,VWS V14.01,2013-03-08 12:01:00,
2013-03-08 06:06:00,61.5,56.3,30.11,SE,125,0.0,4.0,83,0.00,,OVC012,0.00,VWS V14.01,2013-03-08 12:06:00,
2013-03-08 06:11:00,61.5,56.3,30.11,SE,128,1.0,8.0,83,0.00,,OVC012,0.00,VWS V14.01,2013-03-08 12:11:00,
2013-03-08 06:16:00,61.5,56.3,30.11,SE,131,0.0,5.0,83,0.00,,OVC012,0.00,VWS V14.01,2013-03-08 12:16:00,
2013-03-08 06:21:00,61.5,56.3,30.11,ESE,119,0.0,8.0,83,0.00,,OVC012,0.00,VWS V14.01,2013-03-08 12:21:00,
2013-03-08 06:26:00,61.3,56.4,30.11,ESE,114,4.0,4.0,84,0.00,,OVC012,0.00,VWS V14.01,2013-03-08 12:26:00,
2013-03-08 06:31:00,61.3,56.4,30.11,SE,138,0.0,7.0,84,0.00,,OVC012,0.00,VWS V14.01,2013-03-08 12:31:00,
2013-03-08 06:36:00,61.2,56.7,30.11,ESE,112,0.0,6.0,85,0.00,,OVC012,0.00,VWS V14.01,2013-03-08 12:36:00,
2013-03-08 06:41:00,61.0,56.5,30.11,SE,139,8.0,8.0,85,0.00,,OVC012,0.00,VWS V14.01,2013-03-08 12:41:00,
2013-03-08 06:46:00,60.9,56.7,30.11,SE,129,0.0,6.0,86,0.00,,OVC012,0.00,VWS V14.01,2013-03-08 12:46:00,
2013-03-08 06:51:00,60.9,56.7,30.11,SE,133,4.0,7.0,86,0.00,,OVC012,0.00,VWS V14.01,2013-03-08 12:51:00,
2013-03-08 06:56:00,60.7,56.5,30.11,SE,126,2.0,10.0,86,0.00,,OVC010,0.00,VWS V14.01,2013-03-08 12:56:00,
2013-03-08 07:01:00,60.7,56.8,30.11,ESE,121,0.0,10.0,87,0.00,,OVC010,0.00,VWS V14.01,2013-03-08 13:01:00,
2013-03-08 07:06:00,60.5,56.6,30.11,SE,136,0.0,11.0,87,0.00,,OVC010,0.00,VWS V14.01,2013-03-08 13:06:00,
2013-03-08 07:11:00,60.5,56.6,30.11,SE,131,0.0,11.0,87,0.00,,OVC010,0.00,VWS V14.01,2013-03-08 13:11:00,
2013-03-08 07:16:00,60.5,56.6,30.11,ESE,119,0.0,4.0,87,0.00,,OVC010,0.00,VWS V14.01,2013-03-08 13:16:00,
2013-03-08 07:21:00,60.5,56.6,30.12,SE,130,0.0,4.0,87,0.00,,OVC010,0.00,VWS V14.01,2013-03-08 13:21:00,
2013-03-08 07:26:00,60.5,56.6,30.12,SE,140,0.0,5.0,87,0.00,,OVC010,0.00,VWS V14.01,2013-03-08 13:26:00,
2013-03-08 07:31:00,60.5,56.9,30.12,East,98,5.0,7.0,88,0.00,,,0.00,VWS V14.01,2013-03-08 13:31:00,
2013-03-08 07:36:00,60.5,56.9,30.13,ESE,119,2.0,6.0,88,0.00,,,0.00,VWS V14.01,2013-03-08 13:36:00,
2013-03-08 07:41:00,60.5,56.9,30.13,SE,129,0.0,7.0,88,0.00,,,0.00,VWS V14.01,2013-03-08 13:41:00,
2013-03-08 07:46:00,60.7,57.1,30.13,SE,134,4.0,8.0,88,0.00,,,0.00,VWS V14.01,2013-03-08 13:46:00,
2013-03-08 07:51:00,60.7,57.1,30.13,ESE,119,0.0,8.0,88,0.00,,,0.00,VWS V14.01,2013-03-08 13:51:00,
2013-03-08 07:56:00,60.9,57.3,30.13,SE,134,5.0,7.0,88,0.00,,,0.00,VWS V14.01,2013-03-08 13:56:00,
2013-03-08 08:01:00,60.9,57.6,30.13,SSE,153,3.0,7.0,89,0.00,,,0.00,VWS V14.01,2013-03-08 14:01:00,
2013-03-08 08:06:00,60.9,57.6,30.13,SE,130,6.0,7.0,89,0.00,,,0.00,VWS V14.01,2013-03-08 14:06:00,
2013-03-08 08:11:00,60.7,57.8,30.13,ESE,120,5.0,7.0,90,0.00,,,0.00,VWS V14.01,2013-03-08 14:11:00,
2013-03-08 08:16:00,60.7,57.8,30.13,SE,146,0.0,6.0,90,0.00,,,0.00,VWS V14.01,2013-03-08 14:16:00,
2013-03-08 08:21:00,60.7,58.1,30.14,ESE,115,0.0,6.0,91,0.00,,,0.00,VWS V14.01,2013-03-08 14:21:00,
2013-03-08 08:26:00,60.7,58.1,30.14,SE,132,0.0,7.0,91,0.00,,,0.00,VWS V14.01,2013-03-08 14:26:00,
2013-03-08 08:31:00,60.7,58.4,30.14,ESE,115,0.0,7.0,92,0.00,,,0.00,VWS V14.01,2013-03-08 14:31:00,
2013-03-08 08:36:00,60.7,58.4,30.14,SE,140,0.0,4.0,92,0.00,,,0.00,VWS V14.01,2013-03-08 14:36:00,
2013-03-08 08:41:00,60.9,58.6,30.14,ESE,120,0.0,9.0,92,0.00,,,0.00,VWS V14.01,2013-03-08 14:41:00,
2013-03-08 08:46:00,60.9,58.6,30.14,ESE,117,1.0,6.0,92,0.00,,,0.00,VWS V14.01,2013-03-08 14:46:00,
2013-03-08 08:51:00,61.0,58.7,30.13,ESE,122,0.0,6.0,92,0.00,,,0.00,VWS V14.01,2013-03-08 14:51:00,
2013-03-08 08:56:00,61.2,59.2,30.13,SSE,151,5.0,6.0,93,0.00,,,0.00,VWS V14.01,2013-03-08 14:56:00,
2013-03-08 09:01:00,61.2,59.2,30.13,SE,142,5.0,6.0,93,0.00,,,0.00,VWS V14.01,2013-03-08 15:01:00,
2013-03-08 09:06:00,61.3,59.3,30.14,ESE,123,0.0,10.0,93,0.00,,,0.00,VWS V14.01,2013-03-08 15:06:00,
2013-03-08 09:11:00,61.5,59.5,30.14,SE,141,3.0,10.0,93,0.00,,,0.00,VWS V14.01,2013-03-08 15:11:00,
2013-03-08 09:16:00,61.5,59.5,30.14,ESE,119,4.0,11.0,93,0.00,,,0.00,VWS V14.01,2013-03-08 15:16:00,
2013-03-08 09:21:00,61.6,59.6,30.15,ESE,116,2.0,11.0,93,0.00,,,0.00,VWS V14.01,2013-03-08 15:21:00,
2013-03-08 09:26:00,61.6,59.6,30.15,ESE,120,0.0,11.0,93,0.00,,,0.00,VWS V14.01,2013-03-08 15:26:00,
2013-03-08 09:31:00,61.8,59.8,30.15,SSE,150,0.0,11.0,93,0.00,,,0.00,VWS V14.01,2013-03-08 15:31:00,
2013-03-08 09:36:00,61.8,59.8,30.15,SE,126,2.0,10.0,93,0.00,,,0.00,VWS V14.01,2013-03-08 15:36:00,
2013-03-08 09:41:00,62.0,60.0,30.15,SE,134,0.0,10.0,93,0.00,,,0.00,VWS V14.01,2013-03-08 15:41:00,
2013-03-08 09:46:00,62.1,60.1,30.15,SE,124,2.0,10.0,93,0.00,,,0.00,VWS V14.01,2013-03-08 15:46:00,
2013-03-08 09:51:00,62.3,60.2,30.15,SE,126,0.0,10.0,93,0.00,,,0.00,VWS V14.01,2013-03-08 15:51:00,
2013-03-08 09:56:00,62.4,60.3,30.15,SE,140,0.0,3.0,93,0.00,,,0.00,VWS V14.01,2013-03-08 15:56:00,
2013-03-08 10:01:00,62.6,60.5,30.15,SE,134,0.0,5.0,93,0.00,,,0.00,VWS V14.01,2013-03-08 16:01:00,
2013-03-08 10:06:00,62.6,60.5,30.16,SE,131,0.0,7.0,93,0.00,,,0.00,VWS V14.01,2013-03-08 16:06:00,
2013-03-08 10:11:00,62.7,60.3,30.16,ESE,121,0.0,7.0,92,0.00,,,0.00,VWS V14.01,2013-03-08 16:11:00,
2013-03-08 10:16:00,62.9,60.5,30.16,SE,131,0.0,5.0,92,0.00,,,0.00,VWS V14.01,2013-03-08 16:16:00,
2013-03-08 10:21:00,62.9,60.5,30.15,ESE,117,0.0,6.0,92,0.00,,,0.00,VWS V14.01,2013-03-08 16:21:00,
2013-03-08 10:26:00,62.7,60.3,30.15,ESE,114,10.0,10.0,92,0.00,,,0.00,VWS V14.01,2013-03-08 16:26:00,
2013-03-08 10:31:00,62.7,60.7,30.15,SE,127,0.0,10.0,93,0.00,,,0.00,VWS V14.01,2013-03-08 16:31:00,
2013-03-08 10:36:00,62.7,60.7,30.15,SE,138,1.0,7.0,93,0.00,,,0.00,VWS V14.01,2013-03-08 16:36:00,
2013-03-08 10:41:00,62.9,60.8,30.15,ESE,114,3.0,7.0,93,0.00,,,0.00,VWS V14.01,2013-03-08 16:41:00,
2013-03-08 10:46:00,62.9,60.8,30.15,SE,132,3.0,3.0,93,0.00,,,0.00,VWS V14.01,2013-03-08 16:46:00,
2013-03-08 10:51:00,62.9,60.8,30.15,ESE,116,0.0,9.0,93,0.00,,,0.00,VWS V14.01,2013-03-08 16:51:00,
2013-03-08 10:56:00,62.9,60.8,30.15,ESE,107,0.0,6.0,93,0.00,,,0.00,VWS V14.01,2013-03-08 16:56:00,
2013-03-08 11:01:00,62.9,60.8,30.15,ESE,107,0.0,6.0,93,0.00,,,0.00,VWS V14.01,2013-03-08 17:01:00,
2013-03-08 11:06:00,63.1,61.0,30.14,ESE,103,0.0,4.0,93,0.00,,,0.00,VWS V14.01,2013-03-08 17:06:00,
2013-03-08 11:11:00,63.1,61.0,30.14,SE,128,0.0,8.0,93,0.00,,,0.00,VWS V14.01,2013-03-08 17:11:00,
2013-03-08 11:16:00,63.1,61.0,30.14,ESE,118,0.0,4.0,93,0.00,,,0.00,VWS V14.01,2013-03-08 17:16:00,
2013-03-08 11:21:00,63.2,61.2,30.14,ESE,109,0.0,6.0,93,0.00,,,0.00,VWS V14.01,2013-03-08 17:21:00,
2013-03-08 11:26:00,63.2,61.2,30.14,SE,134,0.0,4.0,93,0.00,,,0.00,VWS V14.01,2013-03-08 17:26:00,
2013-03-08 11:31:00,63.4,61.3,30.14,SE,126,0.0,4.0,93,0.00,,,0.00,VWS V14.01,2013-03-08 17:31:00,
2013-03-08 11:36:00,63.4,61.3,30.14,SE,128,0.0,7.0,93,0.00,,,0.00,VWS V14.01,2013-03-08 17:36:00,
2013-03-08 11:41:00,63.4,61.3,30.14,SE,146,0.0,7.0,93,0.00,,-RA,0.00,VWS V14.01,2013-03-08 17:41:00,
2013-03-08 11:46:00,63.4,61.7,30.14,ESE,117,0.0,1.0,94,0.01,,-RA,0.01,VWS V14.01,2013-03-08 17:46:00,
2013-03-08 11:51:00,63.4,61.7,30.13,SE,128,0.0,3.0,94,0.01,,-RA,0.01,VWS V14.01,2013-03-08 17:51:00,
2013-03-08 11:56:00,63.5,61.8,30.13,SE,142,0.0,0.0,94,0.02,,-RA,0.02,VWS V14.01,2013-03-08 17:56:00,
2013-03-08 12:01:00,63.5,61.8,30.13,SSE,158,0.0,6.0,94,0.03,,-RA,0.03,VWS V14.01,2013-03-08 18:01:00,
2013-03-08 12:06:00,63.5,61.8,30.14,SE,140,0.0,5.0,94,0.04,,-RA,0.04,VWS V14.01,2013-03-08 18:06:00,
2013-03-08 12:11:00,63.7,62.0,30.14,South,175,0.0,5.0,94,0.04,,-RA,0.04,VWS V14.01,2013-03-08 18:11:00,
2013-03-08 12:16:00,63.7,62.0,30.14,ESE,103,0.0,5.0,94,0.04,,-RA,0.04,VWS V14.01,2013-03-08 18:16:00,
2013-03-08 12:21:00,63.7,62.0,30.13,ESE,103,0.0,5.0,94,0.04,,-RA,0.04,VWS V14.01,2013-03-08 18:21:00,
2013-03-08 12:26:00,63.9,62.1,30.13,ESE,105,0.0,0.0,94,0.04,,-RA,0.04,VWS V14.01,2013-03-08 18:26:00,
2013-03-08 12:31:00,64.0,62.2,30.13,SE,146,0.0,0.0,94,0.04,,-RA,0.04,VWS V14.01,2013-03-08 18:31:00,
2013-03-08 12:36:00,64.3,62.5,30.12,SE,144,0.0,0.0,94,0.04,,-RA,0.04,VWS V14.01,2013-03-08 18:36:00,
2013-03-08 12:41:00,64.3,62.5,30.12,ESE,114,0.0,4.0,94,0.04,,-RA,0.04,VWS V14.01,2013-03-08 18:41:00,
2013-03-08 12:46:00,64.3,62.5,30.12,SE,129,0.0,12.0,94,0.04,,-RA,0.04,VWS V14.01,2013-03-08 18:46:00,
2013-03-08 12:50:00,64.5,62.7,30.11,SSE,153,1.0,12.0,94,0.04,,-RA,0.04,VWS V14.01,2013-03-08 18:50:00,
2013-03-08 12:55:00,64.7,62.9,30.11,SE,128,6.0,7.0,94,0.03,,-RA,0.04,VWS V14.01,2013-03-08 18:55:00,
2013-03-08 13:00:00,64.8,63.0,30.11,SE,144,7.0,9.0,94,0.03,,-RA,0.04,VWS V14.01,2013-03-08 19:00:00,
2013-03-08 13:05:00,64.8,63.0,30.10,ESE,117,6.0,6.0,94,0.01,,-RA,0.04,VWS V14.01,2013-03-08 19:05:00,
2013-03-08 13:10:00,64.8,63.0,30.10,SE,127,6.0,6.0,94,0.01,,-RA,0.04,VWS V14.01,2013-03-08 19:10:00,
2013-03-08 13:15:00,64.8,63.0,30.10,SE,126,1.0,5.0,94,0.00,,-RA,0.04,VWS V14.01,2013-03-08 19:15:00,
2013-03-08 13:20:00,65.0,63.2,30.09,SE,130,3.0,5.0,94,0.00,,-RA,0.04,VWS V14.01,2013-03-08 19:20:00,
2013-03-08 13:25:00,65.0,63.2,30.09,ESE,119,0.0,6.0,94,0.00,,-RA,0.04,VWS V14.01,2013-03-08 19:25:00,
2013-03-08 13:30:00,65.0,63.2,30.09,ESE,121,0.0,6.0,94,0.00,,-RA,0.04,VWS V14.01,2013-03-08 19:30:00,
2013-03-08 13:35:00,65.2,63.4,30.08,SE,132,0.0,6.0,94,0.00,,-RA,0.04,VWS V14.01,2013-03-08 19:35:00,
2013-03-08 13:40:00,65.3,63.5,30.08,SE,124,0.0,6.0,94,0.00,,-RA,0.04,VWS V14.01,2013-03-08 19:40:00,
2013-03-08 13:45:00,65.3,63.5,30.08,SE,125,0.0,0.0,94,0.00,,-RA,0.04,VWS V14.01,2013-03-08 19:45:00,
2013-03-08 13:50:00,65.6,63.8,30.08,ESE,116,0.0,0.0,94,0.00,,-RA,0.04,VWS V14.01,2013-03-08 19:50:00,
2013-03-08 13:55:00,65.8,64.0,30.08,ESE,113,0.0,3.0,94,0.00,,-RA,0.04,VWS V14.01,2013-03-08 19:55:00,
2013-03-08 14:00:00,66.1,64.3,30.08,ESE,122,0.0,3.0,94,0.00,,-RA,0.04,VWS V14.01,2013-03-08 20:00:00,
2013-03-08 14:05:00,66.4,64.6,30.07,SSE,148,0.0,1.0,94,0.00,,-RA,0.04,VWS V14.01,2013-03-08 20:05:00,
2013-03-08 14:10:00,66.4,64.6,30.07,SE,133,0.0,7.0,94,0.00,,-RA,0.04,VWS V14.01,2013-03-08 20:10:00,
2013-03-08 14:15:00,66.6,64.8,30.07,ESE,115,0.0,4.0,94,0.00,,-RA,0.04,VWS V14.01,2013-03-08 20:15:00,
2013-03-08 14:20:00,66.8,64.7,30.07,SE,134,0.0,4.0,93,0.00,,-RA,0.04,VWS V14.01,2013-03-08 20:20:00,
2013-03-08 14:25:00,66.8,64.7,30.07,ESE,105,0.0,0.0,93,0.00,,-RA,0.04,VWS V14.01,2013-03-08 20:25:00,
2013-03-08 14:30:00,66.9,64.8,30.07,ESE,114,0.0,4.0,93,0.00,,-RA,0.04,VWS V14.01,2013-03-08 20:30:00,
2013-03-08 14:35:00,67.1,64.7,30.07,SE,142,4.0,7.0,92,0.00,,-RA,0.04,VWS V14.01,2013-03-08 20:35:00,
2013-03-08 14:40:00,67.3,64.9,30.07,ESE,109,0.0,7.0,92,0.00,,-RA,0.04,VWS V14.01,2013-03-08 20:40:00,
2013-03-08 14:45:00,67.4,65.0,30.07,SE,143,0.0,3.0,92,0.00,,-RA,0.04,VWS V14.01,2013-03-08 20:45:00,
2013-03-08 14:50:00,67.6,64.9,30.07,SE,132,0.0,5.0,91,0.00,,-RA,0.04,VWS V14.01,2013-03-08 20:50:00,
2013-03-08 14:55:00,67.6,64.9,30.07,ESE,117,0.0,9.0,91,0.00,,,0.04,VWS V14.01,2013-03-08 20:55:00,
2013-03-08 15:00:00,67.6,64.6,30.07,East,96,3.0,11.0,90,0.00,,,0.04,VWS V14.01,2013-03-08 21:00:00,
2013-03-08 15:05:00,67.8,64.4,30.06,ESE,116,4.0,6.0,89,0.00,,,0.04,VWS V14.01,2013-03-08 21:05:00,
2013-03-08 15:10:00,67.8,64.1,30.06,ESE,121,6.0,6.0,88,0.00,,OVC060,0.04,VWS V14.01,2013-03-08 21:10:00,
2013-03-08 15:15:00,67.8,63.8,30.06,East,98,5.0,7.0,87,0.00,,OVC060,0.04,VWS V14.01,2013-03-08 21:15:00,
2013-03-08 15:20:00,67.8,63.8,30.06,ESE,114,2.0,7.0,87,0.00,,OVC060,0.04,VWS V14.01,2013-03-08 21:20:00,
2013-03-08 15:25:00,67.9,63.9,30.06,ESE,104,0.0,3.0,87,0.00,,OVC060,0.04,VWS V14.01,2013-03-08 21:25:00,
2013-03-08 15:30:00,68.1,63.8,30.06,SE,130,0.0,9.0,86,0.00,,OVC060,0.04,VWS V14.01,2013-03-08 21:30:00,
2013-03-08 15:35:00,68.3,64.0,30.06,SE,127,0.0,3.0,86,0.00,,OVC060,0.04,VWS V14.01,2013-03-08 21:35:00,
2013-03-08 15:40:00,68.3,63.6,30.06,East,84,3.0,9.0,85,0.00,,OVC070,0.04,VWS V14.01,2013-03-08 21:40:00,
2013-03-08 15:45:00,68.3,63.6,30.06,SE,127,3.0,9.0,85,0.00,,OVC070,0.04,VWS V14.01,2013-03-08 21:45:00,
2013-03-08 15:50:00,68.1,63.1,30.05,SE,140,7.0,12.0,84,0.00,,OVC070,0.04,VWS V14.01,2013-03-08 21:50:00,
2013-03-08 15:55:00,68.3,63.3,30.05,SE,126,6.0,12.0,84,0.00,,SCT055,0.04,VWS V14.01,2013-03-08 21:55:00,
2013-03-08 16:00:00,68.3,63.3,30.05,ESE,114,0.0,12.0,84,0.00,,SCT055,0.04,VWS V14.01,2013-03-08 22:00:00,
2013-03-08 16:05:00,68.3,63.3,30.07,SE,142,6.0,7.0,84,0.00,,SCT055,0.04,VWS V14.01,2013-03-08 22:05:00,
2013-03-08 16:10:00,68.3,62.9,30.07,SE,139,3.0,10.0,83,0.00,,SCT055,0.04,VWS V14.01,2013-03-08 22:10:00,
2013-03-08 16:15:00,68.4,63.0,30.07,ESE,109,8.0,8.0,83,0.00,,SCT055,0.04,VWS V14.01,2013-03-08 22:15:00,
2013-03-08 16:20:00,68.4,63.0,30.07,SE,126,8.0,10.0,83,0.01,,SCT055,0.05,VWS V14.01,2013-03-08 22:20:00,
2013-03-08 16:25:00,68.4,63.0,30.07,SE,142,1.0,13.0,83,0.01,,SCT055,0.05,VWS V14.01,2013-03-08 22:25:00,
2013-03-08 16:30:00,68.6,63.2,30.07,SE,128,0.0,13.0,83,0.01,,SCT055,0.05,VWS V14.01,2013-03-08 22:30:00,
2013-03-08 16:35:00,68.6,62.9,30.05,ESE,112,0.0,6.0,82,0.01,,SCT055,0.05,VWS V14.01,2013-03-08 22:35:00,
2013-03-08 16:40:00,68.8,62.7,30.05,ESE,103,4.0,15.0,81,0.01,,SCT055,0.05,VWS V14.01,2013-03-08 22:40:00,
2013-03-08 16:45:00,68.9,62.5,30.05,East,97,4.0,10.0,80,0.01,,SCT055,0.05,VWS V14.01,2013-03-08 22:45:00,
2013-03-08 16:50:00,69.1,62.3,30.04,ESE,117,7.0,14.0,79,0.01,,SCT055,0.05,VWS V14.01,2013-03-08 22:50:00,
2013-03-08 16:55:00,69.4,62.2,30.04,East,90,9.0,11.0,78,0.01,,BKN070,0.05,VWS V14.01,2013-03-08 22:55:00,
2013-03-08 17:00:00,69.6,62.4,30.04,ESE,120,11.0,11.0,78,0.01,,BKN070,0.05,VWS V14.01,2013-03-08 23:00:00,
2013-03-08 17:05:00,69.6,62.1,30.03,ESE,113,3.0,10.0,77,0.01,,BKN070,0.05,VWS V14.01,2013-03-08 23:05:00,
2013-03-08 17:10:00,69.6,61.7,30.03,East,98,6.0,15.0,76,0.01,,BKN070,0.05,VWS V14.01,2013-03-08 23:10:00,
2013-03-08 17:15:00,69.4,61.5,30.03,SE,124,5.0,14.0,76,0.01,,BKN070,0.05,VWS V14.01,2013-03-08 23:15:00,
2013-03-08 17:20:00,69.4,61.5,30.02,ESE,105,6.0,14.0,76,0.01,,BKN070,0.05,VWS V14.01,2013-03-08 23:20:00,
2013-03-08 17:25:00,69.3,61.4,30.02,SE,125,3.0,17.0,76,0.00,,BKN070,0.05,VWS V14.01,2013-03-08 23:25:00,
2013-03-08 17:30:00,69.1,61.2,30.02,ENE,78,3.0,17.0,76,0.00,,BKN070,0.05,VWS V14.01,2013-03-08 23:30:00,
2013-03-08 17:35:00,68.9,60.7,30.00,East,89,7.0,13.0,75,0.00,,BKN070,0.05,VWS V14.01,2013-03-08 23:35:00,
2013-03-08 17:40:00,68.9,60.7,30.00,SE,128,9.0,14.0,75,0.00,,BKN070,0.05,VWS V14.01,2013-03-08 23:40:00,
2013-03-08 17:45:00,68.8,60.6,30.00,SE,140,11.0,19.0,75,0.00,,BKN070,0.05,VWS V14.01,2013-03-08 23:45:00,
2013-03-08 17:50:00,68.6,60.7,30.02,SE,126,4.0,19.0,76,0.00,,BKN070,0.05,VWS V14.01,2013-03-08 23:50:00,
2013-03-08 17:55:00,68.4,60.5,30.02,ESE,112,6.0,11.0,76,0.00,,CLR,0.05,VWS V14.01,2013-03-08 23:55:00,
2013-03-08 18:00:00,68.3,60.5,30.02,SE,136,5.0,11.0,76,0.00,,CLR,0.05,VWS V14.01,2013-03-09 00:00:00,
2013-03-08 18:05:00,68.1,60.3,30.02,SE,138,10.0,16.0,76,0.00,,CLR,0.05,VWS V14.01,2013-03-09 00:05:00,
2013-03-08 18:10:00,67.8,60.0,30.02,SE,139,6.0,16.0,76,0.00,,CLR,0.05,VWS V14.01,2013-03-09 00:10:00,
2013-03-08 18:15:00,67.6,60.1,30.02,ESE,123,5.0,15.0,77,0.00,,CLR,0.05,VWS V14.01,2013-03-09 00:15:00,
2013-03-08 18:20:00,67.4,60.0,30.03,SE,139,6.0,15.0,77,0.00,,CLR,0.05,VWS V14.01,2013-03-09 00:20:00,
2013-03-08 18:25:00,67.3,59.8,30.03,ESE,121,15.0,16.0,77,0.00,,CLR,0.05,VWS V14.01,2013-03-09 00:25:00,
2013-03-08 18:30:00,67.1,60.0,30.03,East,101,4.0,16.0,78,0.00,,CLR,0.05,VWS V14.01,2013-03-09 00:30:00,
2013-03-08 18:35:00,67.1,60.0,30.04,SE,145,11.0,12.0,78,0.00,,BKN022,0.05,VWS V14.01,2013-03-09 00:35:00,
2013-03-08 18:40:00,66.9,59.8,30.04,East,97,2.0,17.0,78,0.00,,BKN022,0.05,VWS V14.01,2013-03-09 00:40:00,
2013-03-08 18:45:00,66.9,59.8,30.04,ESE,111,2.0,21.0,78,0.00,,BKN022,0.05,VWS V14.01,2013-03-09 00:45:00,
2013-03-08 18:50:00,66.9,59.8,30.05,SE,127,1.0,21.0,78,0.00,,BKN022,0.05,VWS V14.01,2013-03-09 00:50:00,
2013-03-08 18:55:00,66.8,59.7,30.05,South,171,6.0,18.0,78,0.00,,BKN055,0.05,VWS V14.01,2013-03-09 00:55:00,
2013-03-08 19:00:00,66.8,59.7,30.05,ESE,103,2.0,18.0,78,0.00,,BKN055,0.05,VWS V14.01,2013-03-09 01:00:00,
2013-03-08 19:05:00,66.6,59.9,30.06,ESE,117,1.0,12.0,79,0.00,,BKN055,0.05,VWS V14.01,2013-03-09 01:05:00,
2013-03-08 19:10:00,66.6,59.9,30.06,ESE,120,5.0,12.0,79,0.00,,OVC055,0.05,VWS V14.01,2013-03-09 01:10:00,
2013-03-08 19:15:00,66.4,59.7,30.06,ESE,117,4.0,9.0,79,0.00,,OVC055,0.05,VWS V14.01,2013-03-09 01:15:00,
2013-03-08 19:20:00,66.4,59.7,30.07,SE,134,4.0,12.0,79,0.00,,OVC055,0.05,VWS V14.01,2013-03-09 01:20:00,
2013-03-08 19:25:00,66.3,59.6,30.07,SE,127,6.0,9.0,79,0.00,,OVC055,0.05,VWS V14.01,2013-03-09 01:25:00,
2013-03-08 19:30:00,66.1,59.4,30.07,SSE,165,5.0,12.0,79,0.00,,OVC055,0.05,VWS V14.01,2013-03-09 01:30:00,
2013-03-08 19:35:00,66.1,59.4,30.07,ESE,119,10.0,10.0,79,0.00,,OVC060,0.05,VWS V14.01,2013-03-09 01:35:00,
2013-03-08 19:40:00,66.0,59.7,30.07,SE,132,2.0,14.0,80,0.00,,OVC060,0.05,VWS V14.01,2013-03-09 01:40:00,
2013-03-08 19:45:00,65.8,59.5,30.07,ESE,122,5.0,9.0,80,0.00,,OVC060,0.05,VWS V14.01,2013-03-09 01:45:00,
2013-03-08 19:50:00,65.8,59.5,30.07,ESE,120,7.0,11.0,80,0.00,,OVC060,0.05,VWS V14.01,2013-03-09 01:50:00,
2013-03-08 19:55:00,65.6,59.3,30.07,South,170,5.0,15.0,80,0.00,,OVC060,0.05,VWS V14.01,2013-03-09 01:55:00,
2013-03-08 20:00:00,65.6,59.6,30.07,SSE,148,4.0,15.0,81,0.00,,OVC060,0.05,VWS V14.01,2013-03-09 02:00:00,
2013-03-08 20:05:00,65.5,59.5,30.07,SSE,148,9.0,12.0,81,0.00,,OVC060,0.05,VWS V14.01,2013-03-09 02:05:00,
2013-03-08 20:10:00,65.5,59.5,30.07,SE,127,9.0,14.0,81,0.00,,OVC060,0.05,VWS V14.01,2013-03-09 02:10:00,
2013-03-08 20:15:00,65.5,59.5,30.07,ESE,121,5.0,14.0,81,0.00,,OVC060,0.05,VWS V14.01,2013-03-09 02:15:00,
2013-03-08 20:20:00,65.3,59.3,30.07,ESE,105,0.0,14.0,81,0.00,,OVC060,0.05,VWS V14.01,2013-03-09 02:20:00,
2013-03-08 20:25:00,65.3,59.3,30.07,East,101,2.0,7.0,81,0.00,,OVC060,0.05,VWS V14.01,2013-03-09 02:25:00,
2013-03-08 20:30:00,65.3,59.3,30.07,SE,127,5.0,11.0,81,0.00,,OVC060,0.05,VWS V14.01,2013-03-09 02:30:00,
2013-03-08 20:35:00,65.2,59.2,30.07,SE,128,0.0,11.0,81,0.00,,OVC060,0.05,VWS V14.01,2013-03-09 02:35:00,
2013-03-08 20:40:00,65.2,59.6,30.07,SE,134,2.0,11.0,82,0.00,,OVC060,0.05,VWS V14.01,2013-03-09 02:40:00,
2013-03-08 20:45:00,65.2,59.6,30.07,SE,135,0.0,5.0,82,0.00,,OVC060,0.05,VWS V14.01,2013-03-09 02:45:00,
2013-03-08 20:50:00,65.0,59.4,30.08,East,99,0.0,7.0,82,0.00,,OVC050,0.05,VWS V14.01,2013-03-09 02:50:00,
2013-03-08 20:55:00,65.0,59.4,30.08,SE,128,2.0,8.0,82,0.00,,OVC050,0.05,VWS V14.01,2013-03-09 02:55:00,
2013-03-08 21:00:00,65.0,59.4,30.08,ESE,123,0.0,12.0,82,0.00,,OVC050,0.05,VWS V14.01,2013-03-09 03:00:00,
2013-03-08 21:05:00,65.0,59.4,30.08,SE,142,2.0,5.0,82,0.00,,OVC050,0.05,VWS V14.01,2013-03-09 03:05:00,
2013-03-08 21:10:00,65.0,59.4,30.08,ESE,112,2.0,11.0,82,0.00,,OVC050,0.05,VWS V14.01,2013-03-09 03:10:00,
2013-03-08 21:15:00,65.0,59.4,30.08,ESE,110,5.0,12.0,82,0.00,,OVC050,0.05,VWS V14.01,2013-03-09 03:15:00,
2013-03-08 21:20:00,64.8,59.2,30.08,ESE,116,2.0,12.0,82,0.00,,OVC050,0.05,VWS V14.01,2013-03-09 03:20:00,
2013-03-08 21:25:00,64.8,59.2,30.08,ESE,107,9.0,9.0,82,0.00,,OVC050,0.05,VWS V14.01,2013-03-09 03:25:00,
2013-03-08 21:30:00,64.8,59.2,30.08,SE,144,10.0,13.0,82,0.00,,OVC050,0.05,VWS V14.01,2013-03-09 03:30:00,
2013-03-08 21:35:00,64.8,59.2,30.07,SSE,168,0.0,6.0,82,0.00,,OVC050,0.05,VWS V14.01,2013-03-09 03:35:00,
2013-03-08 21:40:00,64.7,59.1,30.07,SE,124,7.0,12.0,82,0.00,,OVC050,0.05,VWS V14.01,2013-03-09 03:40:00,
2013-03-08 21:45:00,64.7,59.1,30.07,SE,126,2.0,12.0,82,0.00,,OVC050,0.05,VWS V14.01,2013-03-09 03:45:00,
2013-03-08 21:50:00,64.7,59.1,30.07,ESE,119,5.0,12.0,82,0.00,,OVC050,0.05,VWS V14.01,2013-03-09 03:50:00,
2013-03-08 21:55:00,64.7,59.1,30.07,East,98,6.0,7.0,82,0.00,,OVC042,0.05,VWS V14.01,2013-03-09 03:55:00,
2013-03-08 22:00:00,64.5,59.2,30.07,ESE,112,1.0,12.0,83,0.00,,OVC042,0.05,VWS V14.01,2013-03-09 04:00:00,
2013-03-08 22:05:00,64.5,59.2,30.07,East,98,2.0,7.0,83,0.00,,OVC042,0.05,VWS V14.01,2013-03-09 04:05:00,
2013-03-08 22:10:00,64.5,59.2,30.07,SE,134,0.0,7.0,83,0.00,,OVC042,0.05,VWS V14.01,2013-03-09 04:10:00,
2013-03-08 22:15:00,64.5,59.2,30.07,ESE,111,2.0,9.0,83,0.00,,OVC042,0.05,VWS V14.01,2013-03-09 04:15:00,
2013-03-08 22:20:00,64.5,59.2,30.07,ESE,123,0.0,9.0,83,0.00,,OVC042,0.05,VWS V14.01,2013-03-09 04:20:00,
2013-03-08 22:25:00,64.5,59.2,30.07,SE,127,3.0,11.0,83,0.00,,OVC042,0.05,VWS V14.01,2013-03-09 04:25:00,
2013-03-08 22:30:00,64.5,59.2,30.07,SSE,158,8.0,11.0,83,0.00,,OVC042,0.05,VWS V14.01,2013-03-09 04:30:00,
2013-03-08 22:35:00,64.3,59.0,30.07,SSE,155,5.0,10.0,83,0.00,,OVC042,0.05,VWS V14.01,2013-03-09 04:35:00,
2013-03-08 22:40:00,64.3,59.0,30.07,ESE,121,5.0,15.0,83,0.00,,OVC042,0.05,VWS V14.01,2013-03-09 04:40:00,
2013-03-08 22:45:00,64.3,59.0,30.07,SE,133,7.0,12.0,83,0.00,,OVC042,0.05,VWS V14.01,2013-03-09 04:45:00,
2013-03-08 22:50:00,64.3,59.0,30.07,ESE,121,5.0,13.0,83,0.00,,OVC042,0.05,VWS V14.01,2013-03-09 04:50:00,
2013-03-08 22:55:00,64.2,58.9,30.07,SSE,148,8.0,11.0,83,0.00,,OVC015,0.05,VWS V14.01,2013-03-09 04:55:00,
2013-03-08 23:00:00,64.2,58.9,30.07,ESE,123,0.0,11.0,83,0.00,,OVC015,0.05,VWS V14.01,2013-03-09 05:00:00,
2013-03-08 23:05:00,64.2,58.9,30.06,SE,130,0.0,11.0,83,0.00,,OVC015,0.05,VWS V14.01,2013-03-09 05:05:00,
2013-03-08 23:10:00,64.2,58.9,30.06,ESE,108,5.0,11.0,83,0.00,,OVC015,0.05,VWS V14.01,2013-03-09 05:10:00,
2013-03-08 23:15:00,64.2,59.3,30.06,SSE,148,5.0,6.0,84,0.00,,OVC015,0.05,VWS V14.01,2013-03-09 05:15:00,
2013-03-08 23:20:00,64.2,59.3,30.07,SE,140,0.0,10.0,84,0.00,,OVC015,0.05,VWS V14.01,2013-03-09 05:20:00,
2013-03-08 23:25:00,64.2,59.3,30.07,SE,138,0.0,0.0,84,0.00,,OVC015,0.05,VWS V14.01,2013-03-09 05:25:00,
2013-03-08 23:30:00,64.0,59.1,30.07,SE,142,3.0,11.0,84,0.00,,OVC015,0.05,VWS V14.01,2013-03-09 05:30:00,
2013-03-08 23:35:00,64.0,59.1,30.06,ESE,121,0.0,5.0,84,0.00,,OVC015,0.05,VWS V14.01,2013-03-09 05:35:00,
2013-03-08 23:40:00,64.0,59.1,30.06,ESE,119,0.0,8.0,84,0.00,,OVC015,0.05,VWS V14.01,2013-03-09 05:40:00,
2013-03-08 23:45:00,64.0,59.1,30.06,ESE,116,0.0,0.0,84,0.00,,OVC015,0.05,VWS V14.01,2013-03-09 05:45:00,
2013-03-08 23:50:00,64.0,59.1,30.05,SE,138,0.0,7.0,84,0.00,,OVC015,0.05,VWS V14.01,2013-03-09 05:50:00,
2013-03-08 23:55:00,63.9,59.0,30.05,ESE,115,2.0,5.0,84,0.00,,OVC015,0.05,VWS V14.01,2013-03-09 05:55:00,